createdAt,value
2022-07-31T00:02:18.288Z,22.80
2022-07-31T00:05:06.405Z,22.70
2022-07-31T00:07:56.709Z,22.70
2022-07-31T00:10:44.242Z,22.60
2022-07-31T00:13:57.306Z,22.70
2022-07-31T00:16:22.238Z,22.70
2022-07-31T00:19:09.944Z,22.70
2022-07-31T00:21:58.562Z,22.70
2022-07-31T00:24:46.094Z,22.70
2022-07-31T00:27:33.976Z,22.70
2022-07-31T00:30:22.003Z,22.70
2022-07-31T00:33:09.585Z,22.70
2022-07-31T00:35:57.126Z,22.70
2022-07-31T00:38:44.697Z,22.80
2022-07-31T00:41:40.066Z,22.80
2022-07-31T00:44:27.381Z,22.60
2022-07-31T00:47:15.101Z,22.50
2022-07-31T00:50:02.775Z,22.40
2022-07-31T00:52:51.538Z,22.30
2022-07-31T00:55:42.890Z,22.30
2022-07-31T00:58:28.137Z,22.30
2022-07-31T01:01:16.015Z,22.40
2022-07-31T01:04:03.305Z,22.40
2022-07-31T01:06:50.602Z,22.40
2022-07-31T01:09:38.215Z,22.40
2022-07-31T01:12:35.017Z,22.40
2022-07-31T01:15:23.627Z,22.30
2022-07-31T01:18:12.841Z,22.10
2022-07-31T01:21:08.622Z,22.00
2022-07-31T01:24:21.616Z,22.00
2022-07-31T01:27:29.821Z,21.90
2022-07-31T01:30:18.666Z,21.90
2022-07-31T01:33:09.191Z,21.80
2022-07-31T01:35:59.744Z,21.60
2022-07-31T01:38:50.312Z,21.40
2022-07-31T01:41:43.868Z,21.40
2022-07-31T01:44:32.420Z,21.30
2022-07-31T01:47:22.467Z,21.40
2022-07-31T01:50:41.815Z,21.40
2022-07-31T01:53:00.852Z,21.40
2022-07-31T01:56:02.901Z,21.40
2022-07-31T01:58:44.844Z,21.30
2022-07-31T02:01:33.647Z,21.20
2022-07-31T02:04:23.203Z,21.20
2022-07-31T02:07:11.208Z,21.00
2022-07-31T02:10:00.327Z,20.90
2022-07-31T02:12:48.460Z,20.80
2022-07-31T02:15:36.418Z,20.70
2022-07-31T02:18:24.952Z,20.80
2022-07-31T02:21:12.333Z,20.70
2022-07-31T02:24:00.004Z,20.60
2022-07-31T02:26:48.439Z,20.50
2022-07-31T02:29:36.656Z,20.50
2022-07-31T02:32:26.398Z,20.30
2022-07-31T02:35:16.412Z,20.30
2022-07-31T02:38:04.584Z,20.20
2022-07-31T02:40:57.965Z,20.20
2022-07-31T02:43:46.373Z,20.10
2022-07-31T02:46:33.620Z,20.00
2022-07-31T02:49:21.512Z,19.80
2022-07-31T02:52:10.016Z,19.70
2022-07-31T02:54:58.951Z,19.60
2022-07-31T02:57:48.010Z,19.60
2022-07-31T03:00:35.813Z,19.50
2022-07-31T03:03:23.341Z,19.50
2022-07-31T03:06:10.665Z,19.50
2022-07-31T03:08:58.460Z,19.40
2022-07-31T03:11:45.662Z,19.50
2022-07-31T03:14:35.634Z,19.60
2022-07-31T03:17:23.472Z,19.50
2022-07-31T03:20:13.259Z,19.50
2022-07-31T03:23:07.173Z,19.40
2022-07-31T03:25:55.345Z,19.20
2022-07-31T03:28:43.407Z,19.20
2022-07-31T03:31:30.719Z,19.10
2022-07-31T03:34:17.965Z,19.20
2022-07-31T03:37:05.715Z,19.20
2022-07-31T03:39:53.196Z,19.30
2022-07-31T03:42:41.546Z,19.30
2022-07-31T03:45:30.821Z,19.40
2022-07-31T03:48:18.282Z,19.50
2022-07-31T03:51:07.262Z,19.50
2022-07-31T03:53:55.264Z,19.50
2022-07-31T03:56:45.687Z,19.50
2022-07-31T03:59:40.631Z,19.50
2022-07-31T04:02:27.219Z,19.60
2022-07-31T04:05:15.639Z,19.60
2022-07-31T04:08:03.498Z,19.80
2022-07-31T04:10:51.062Z,19.90
2022-07-31T04:13:38.545Z,20.00
2022-07-31T04:16:26.121Z,20.00
2022-07-31T04:19:13.552Z,20.10
2022-07-31T04:22:02.225Z,20.20
2022-07-31T04:24:52.067Z,20.10
2022-07-31T04:27:47.852Z,20.00
2022-07-31T04:30:28.924Z,20.10
2022-07-31T04:33:16.523Z,20.10
2022-07-31T04:36:03.924Z,20.00
2022-07-31T04:38:51.380Z,20.20
2022-07-31T04:41:39.765Z,20.30
2022-07-31T04:44:27.021Z,20.30
2022-07-31T04:47:14.676Z,20.40
2022-07-31T04:50:01.871Z,20.50
2022-07-31T04:52:50.003Z,20.60
2022-07-31T04:55:37.540Z,20.70
2022-07-31T04:58:24.821Z,20.60
2022-07-31T05:01:12.477Z,20.60
2022-07-31T05:04:02.360Z,20.70
2022-07-31T05:06:51.577Z,20.80
2022-07-31T05:09:38.893Z,21.00
2022-07-31T05:12:26.335Z,21.10
2022-07-31T05:15:14.063Z,21.20
2022-07-31T05:18:01.375Z,21.20
2022-07-31T05:20:48.916Z,21.30
2022-07-31T05:23:36.443Z,21.40
2022-07-31T05:26:24.669Z,21.50
2022-07-31T05:29:11.955Z,21.60
2022-07-31T05:32:01.095Z,21.70
2022-07-31T05:34:48.591Z,21.80
2022-07-31T05:37:36.104Z,21.80
2022-07-31T05:40:23.453Z,21.90
2022-07-31T05:43:10.984Z,21.90
2022-07-31T05:45:58.208Z,21.90
2022-07-31T05:48:46.239Z,21.90
2022-07-31T05:51:33.987Z,21.90
2022-07-31T05:54:22.669Z,21.90
2022-07-31T05:57:10.531Z,21.90
2022-07-31T05:59:57.532Z,22.00
2022-07-31T06:02:46.529Z,22.20
2022-07-31T06:05:34.380Z,22.40
2022-07-31T06:08:22.432Z,22.50
2022-07-31T06:11:09.640Z,22.60
2022-07-31T06:13:57.109Z,22.60
2022-07-31T06:16:45.410Z,22.70
2022-07-31T06:19:34.586Z,22.80
2022-07-31T06:22:22.018Z,22.90
2022-07-31T06:25:10.548Z,22.80
2022-07-31T06:28:00.902Z,23.00
2022-07-31T06:30:48.667Z,23.10
2022-07-31T06:33:37.134Z,23.30
2022-07-31T06:36:25.100Z,23.50
2022-07-31T06:39:12.687Z,23.60
2022-07-31T06:42:00.416Z,23.70
2022-07-31T06:44:49.039Z,23.80
2022-07-31T06:47:36.106Z,23.90
2022-07-31T06:50:26.643Z,23.90
2022-07-31T06:53:14.009Z,24.10
2022-07-31T06:56:01.563Z,24.30
2022-07-31T06:58:49.105Z,24.40
2022-07-31T07:01:36.778Z,24.60
2022-07-31T07:04:23.820Z,24.70
2022-07-31T07:07:13.017Z,24.70
2022-07-31T07:10:00.528Z,24.50
2022-07-31T07:12:48.166Z,24.40
2022-07-31T07:15:35.604Z,24.50
2022-07-31T07:18:22.926Z,24.70
2022-07-31T07:21:10.554Z,24.60
2022-07-31T07:23:57.883Z,24.70
2022-07-31T07:26:45.603Z,24.70
2022-07-31T07:29:33.283Z,24.60
2022-07-31T07:32:20.565Z,24.70
2022-07-31T07:35:09.299Z,24.60
2022-07-31T07:37:56.391Z,24.60
2022-07-31T07:40:44.715Z,24.70
2022-07-31T07:43:32.212Z,24.80
2022-07-31T07:46:19.779Z,24.70
2022-07-31T07:49:07.506Z,24.60
2022-07-31T07:51:59.528Z,24.70
2022-07-31T07:54:44.094Z,25.00
2022-07-31T07:57:31.455Z,25.20
2022-07-31T08:00:19.456Z,25.30
2022-07-31T08:03:49.919Z,25.30
2022-07-31T08:05:56.193Z,25.20
2022-07-31T08:08:43.863Z,25.20
2022-07-31T08:11:31.564Z,24.90
2022-07-31T08:14:19.039Z,25.00
2022-07-31T08:17:08.025Z,25.00
2022-07-31T08:19:56.865Z,25.00
2022-07-31T08:22:44.548Z,25.00
2022-07-31T08:25:32.278Z,25.20
2022-07-31T08:28:24.028Z,25.30
2022-07-31T08:31:08.876Z,25.30
2022-07-31T08:33:56.383Z,25.50
2022-07-31T08:36:43.976Z,25.60
2022-07-31T08:39:31.477Z,25.80
2022-07-31T08:42:20.204Z,25.80
2022-07-31T08:45:09.151Z,26.00
2022-07-31T08:47:59.669Z,26.20
2022-07-31T08:50:52.077Z,26.40
2022-07-31T08:53:39.707Z,26.60
2022-07-31T08:56:27.936Z,26.60
2022-07-31T08:59:17.400Z,26.70
2022-07-31T09:02:05.434Z,26.90
2022-07-31T09:04:53.456Z,27.20
2022-07-31T09:07:40.852Z,27.40
2022-07-31T09:10:29.560Z,27.40
2022-07-31T09:13:20.421Z,27.30
2022-07-31T09:16:07.848Z,27.50
2022-07-31T09:19:03.403Z,27.30
2022-07-31T09:21:52.465Z,27.50
2022-07-31T09:24:40.843Z,28.00
2022-07-31T09:27:29.628Z,28.00
2022-07-31T09:30:17.132Z,28.20
2022-07-31T09:33:17.622Z,28.40
2022-07-31T09:36:05.550Z,27.80
2022-07-31T09:38:52.926Z,27.50
2022-07-31T09:42:01.019Z,27.70
2022-07-31T09:44:38.655Z,27.80
2022-07-31T09:47:29.760Z,27.60
2022-07-31T09:50:19.943Z,27.80
2022-07-31T09:53:07.598Z,27.80
2022-07-31T09:55:56.696Z,27.70
2022-07-31T09:58:44.046Z,27.80
2022-07-31T10:01:35.841Z,27.80
2022-07-31T10:04:24.248Z,27.70
2022-07-31T10:07:32.400Z,27.70
2022-07-31T10:10:04.258Z,27.50
2022-07-31T10:12:55.000Z,27.60
2022-07-31T10:15:43.917Z,27.70
2022-07-31T10:18:36.075Z,27.40
2022-07-31T10:21:26.419Z,27.40
2022-07-31T10:24:13.760Z,27.30
2022-07-31T10:27:07.757Z,27.10
2022-07-31T10:29:51.338Z,27.30
2022-07-31T10:32:39.065Z,27.60
2022-07-31T10:35:26.499Z,27.80
2022-07-31T10:38:22.853Z,27.80
2022-07-31T10:41:26.829Z,27.90
2022-07-31T10:44:23.594Z,28.10
2022-07-31T10:47:15.851Z,28.50
2022-07-31T10:50:03.628Z,28.70
2022-07-31T10:52:51.427Z,28.80
2022-07-31T10:55:39.091Z,29.00
2022-07-31T10:58:26.333Z,29.30
2022-07-31T11:01:17.530Z,29.40
2022-07-31T11:04:04.697Z,29.60
2022-07-31T11:06:52.060Z,29.20
2022-07-31T11:09:50.550Z,28.70
2022-07-31T11:12:28.329Z,28.70
2022-07-31T11:15:21.691Z,29.00
2022-07-31T11:18:24.895Z,28.90
2022-07-31T11:21:37.978Z,29.00
2022-07-31T11:24:03.153Z,29.30
2022-07-31T11:26:57.290Z,29.50
2022-07-31T11:29:58.578Z,29.70
2022-07-31T11:32:35.398Z,30.00
2022-07-31T11:35:30.632Z,29.90
2022-07-31T11:38:18.044Z,29.90
2022-07-31T11:41:07.001Z,30.30
2022-07-31T11:43:57.471Z,30.50
2022-07-31T11:46:44.922Z,31.30
2022-07-31T11:49:47.943Z,31.80
2022-07-31T11:52:31.123Z,31.80
2022-07-31T11:55:17.730Z,31.60
2022-07-31T11:58:08.225Z,31.90
2022-07-31T12:00:57.976Z,32.50
2022-07-31T12:03:46.241Z,32.30
2022-07-31T12:06:36.341Z,32.30
2022-07-31T12:10:00.375Z,32.20
2022-07-31T12:12:11.888Z,32.50
2022-07-31T12:14:59.203Z,32.60
2022-07-31T12:17:47.709Z,32.30
2022-07-31T12:20:37.027Z,32.10
2022-07-31T12:23:38.736Z,32.60
2022-07-31T12:26:26.297Z,32.60
2022-07-31T12:29:14.094Z,32.80
2022-07-31T12:32:02.009Z,32.90
2022-07-31T12:34:49.371Z,33.30
2022-07-31T12:37:48.047Z,34.00
2022-07-31T12:40:36.096Z,34.00
2022-07-31T12:43:26.492Z,33.80
2022-07-31T12:46:13.691Z,33.20
2022-07-31T12:49:01.213Z,32.80
2022-07-31T12:51:48.321Z,32.70
2022-07-31T12:54:39.380Z,32.50
2022-07-31T12:57:24.663Z,32.60
2022-07-31T13:00:12.732Z,32.40
2022-07-31T13:03:00.857Z,32.10
2022-07-31T13:05:52.011Z,32.10
2022-07-31T13:08:37.036Z,32.30
2022-07-31T13:11:25.670Z,32.40
2022-07-31T13:14:13.063Z,32.50
2022-07-31T13:17:00.545Z,32.80
2022-07-31T13:19:47.954Z,32.50
2022-07-31T13:22:34.940Z,32.50
2022-07-31T13:25:41.807Z,32.20
2022-07-31T13:28:29.184Z,32.00
2022-07-31T13:31:16.656Z,31.70
2022-07-31T13:34:03.628Z,31.80
2022-07-31T13:36:51.207Z,32.00
2022-07-31T13:39:38.545Z,31.80
2022-07-31T13:42:29.343Z,31.70
2022-07-31T13:45:14.653Z,31.80
2022-07-31T13:48:04.409Z,32.10
2022-07-31T13:50:51.000Z,31.90
2022-07-31T13:53:38.508Z,31.50
2022-07-31T13:56:34.115Z,31.50
2022-07-31T13:59:14.840Z,31.40
2022-07-31T14:02:05.653Z,31.40
2022-07-31T14:04:51.422Z,31.50
2022-07-31T14:07:48.120Z,31.60
2022-07-31T14:10:28.488Z,31.50
2022-07-31T14:13:15.759Z,31.50
2022-07-31T14:16:03.005Z,31.60
2022-07-31T14:18:50.141Z,31.90
2022-07-31T14:21:37.439Z,32.00
2022-07-31T14:24:25.723Z,32.00
2022-07-31T14:27:13.083Z,31.70
2022-07-31T14:30:00.161Z,31.60
2022-07-31T14:32:47.715Z,31.70
2022-07-31T14:35:34.729Z,31.60
2022-07-31T14:38:24.081Z,31.70
2022-07-31T14:41:11.085Z,31.70
2022-07-31T14:43:58.314Z,32.00
2022-07-31T14:46:45.758Z,32.00
2022-07-31T14:50:09.773Z,32.10
2022-07-31T14:52:22.698Z,32.10
2022-07-31T14:55:10.807Z,32.00
2022-07-31T14:57:58.079Z,32.00
2022-07-31T15:00:46.589Z,32.10
2022-07-31T15:03:33.991Z,32.20
2022-07-31T15:06:41.288Z,32.60
2022-07-31T15:09:10.689Z,32.80
2022-07-31T15:11:59.935Z,32.60
2022-07-31T15:14:46.662Z,32.50
2022-07-31T15:17:34.031Z,32.90
2022-07-31T15:20:21.527Z,33.50
2022-07-31T15:23:10.116Z,33.60
2022-07-31T15:25:57.570Z,34.20
2022-07-31T15:28:46.145Z,34.30
2022-07-31T15:31:33.628Z,34.40
2022-07-31T15:34:20.851Z,34.20
2022-07-31T15:37:08.544Z,34.10
2022-07-31T15:40:01.903Z,34.70
2022-07-31T15:42:47.020Z,34.30
2022-07-31T15:45:34.201Z,33.80
2022-07-31T15:48:23.573Z,33.50
2022-07-31T15:51:11.436Z,33.70
2022-07-31T15:53:58.971Z,34.10
2022-07-31T15:56:47.069Z,34.60
2022-07-31T15:59:34.335Z,34.50
2022-07-31T16:02:23.136Z,34.60
2022-07-31T16:05:22.094Z,34.60
2022-07-31T16:08:31.472Z,34.60
2022-07-31T16:10:54.293Z,34.60
2022-07-31T16:13:37.934Z,34.80
2022-07-31T16:16:25.492Z,34.70
2022-07-31T16:19:12.366Z,34.50
2022-07-31T16:22:00.964Z,34.10
2022-07-31T16:24:48.463Z,34.10
2022-07-31T16:27:36.089Z,34.30
2022-07-31T16:30:25.665Z,34.30
2022-07-31T16:33:13.388Z,34.30
2022-07-31T16:36:00.802Z,33.90
2022-07-31T16:39:10.776Z,33.90
2022-07-31T16:41:38.858Z,33.90
2022-07-31T16:44:27.585Z,34.10
2022-07-31T16:47:15.011Z,34.10
2022-07-31T16:50:02.598Z,33.80
2022-07-31T16:52:54.151Z,33.70
2022-07-31T16:56:00.033Z,33.80
2022-07-31T16:58:27.783Z,33.90
2022-07-31T17:01:53.726Z,34.10
2022-07-31T17:04:04.580Z,33.90
2022-07-31T17:06:51.604Z,33.30
2022-07-31T17:09:38.715Z,32.90
2022-07-31T17:12:26.043Z,32.70
2022-07-31T17:15:13.346Z,32.40
2022-07-31T17:18:00.705Z,32.30
2022-07-31T17:20:48.298Z,32.00
2022-07-31T17:23:44.168Z,31.90
2022-07-31T17:26:24.489Z,31.70
2022-07-31T17:29:13.139Z,31.50
2022-07-31T17:32:00.793Z,31.50
2022-07-31T17:34:49.481Z,31.40
2022-07-31T17:37:37.053Z,31.30
2022-07-31T17:40:42.645Z,31.20
2022-07-31T17:43:13.290Z,31.20
2022-07-31T17:46:08.544Z,31.20
2022-07-31T17:48:49.829Z,31.20
2022-07-31T17:51:37.308Z,31.10
2022-07-31T17:54:26.216Z,31.00
2022-07-31T17:57:14.989Z,30.90
2022-07-31T18:00:03.193Z,30.90
2022-07-31T18:02:50.968Z,30.70
2022-07-31T18:05:38.448Z,30.50
2022-07-31T18:08:27.008Z,30.40
2022-07-31T18:11:14.467Z,30.30
2022-07-31T18:14:03.335Z,30.20
2022-07-31T18:16:50.899Z,30.10
2022-07-31T18:19:38.074Z,30.10
2022-07-31T18:22:26.868Z,30.00
2022-07-31T18:25:16.283Z,30.10
2022-07-31T18:28:04.056Z,30.00
2022-07-31T18:30:51.931Z,30.20
2022-07-31T18:33:40.609Z,30.20
2022-07-31T18:36:27.984Z,30.10
2022-07-31T18:39:15.218Z,30.00
2022-07-31T18:42:03.046Z,29.80
2022-07-31T18:44:51.274Z,29.70
2022-07-31T18:47:38.449Z,29.80
2022-07-31T18:51:01.576Z,29.80
2022-07-31T18:53:16.069Z,29.80
2022-07-31T18:56:04.514Z,29.70
2022-07-31T18:58:52.822Z,29.40
2022-07-31T19:01:40.260Z,29.30
2022-07-31T19:04:29.295Z,29.20
2022-07-31T19:07:16.889Z,29.00
2022-07-31T19:10:07.773Z,28.80
2022-07-31T19:12:55.017Z,28.70
2022-07-31T19:15:42.519Z,28.60
2022-07-31T19:18:29.864Z,28.50
2022-07-31T19:21:41.590Z,28.40
2022-07-31T19:24:07.638Z,28.30
2022-07-31T19:26:54.960Z,28.30
2022-07-31T19:29:42.411Z,28.30
2022-07-31T19:32:30.649Z,28.30
2022-07-31T19:35:17.842Z,28.30
2022-07-31T19:38:05.243Z,28.10
2022-07-31T19:40:52.841Z,28.00
2022-07-31T19:43:39.900Z,27.80
2022-07-31T19:46:27.311Z,27.60
2022-07-31T19:49:14.631Z,27.60
2022-07-31T19:52:02.401Z,27.60
2022-07-31T19:54:50.270Z,27.60
2022-07-31T19:57:38.305Z,27.60
2022-07-31T20:00:25.791Z,27.50
2022-07-31T20:03:13.729Z,27.50
2022-07-31T20:06:02.181Z,27.50
2022-07-31T20:08:49.406Z,27.40
2022-07-31T20:11:36.751Z,27.40
2022-07-31T20:14:23.992Z,27.40
2022-07-31T20:17:11.518Z,27.40
2022-07-31T20:20:14.799Z,27.40
2022-07-31T20:22:47.876Z,27.40
2022-07-31T20:25:35.100Z,27.30
2022-07-31T20:28:22.527Z,27.30
2022-07-31T20:31:16.126Z,27.30
2022-07-31T20:33:59.635Z,27.30
2022-07-31T20:36:47.135Z,27.30
2022-07-31T20:39:34.364Z,27.40
2022-07-31T20:42:21.837Z,27.30
2022-07-31T20:45:11.240Z,27.30
2022-07-31T20:47:58.596Z,27.20
2022-07-31T20:50:48.127Z,27.20
2022-07-31T20:53:35.280Z,27.00
2022-07-31T20:56:22.976Z,27.10
2022-07-31T20:59:10.612Z,27.00
2022-07-31T21:01:59.369Z,27.00
2022-07-31T21:04:46.831Z,26.90
2022-07-31T21:07:34.816Z,26.90
2022-07-31T21:10:23.948Z,26.80
2022-07-31T21:13:11.667Z,26.70
2022-07-31T21:15:59.174Z,26.60
2022-07-31T21:18:48.063Z,26.60
2022-07-31T21:21:35.138Z,26.60
2022-07-31T21:24:23.527Z,26.60
2022-07-31T21:27:13.846Z,26.60
2022-07-31T21:30:01.153Z,26.60
2022-07-31T21:32:48.595Z,26.50
2022-07-31T21:35:37.527Z,26.50
2022-07-31T21:38:25.541Z,26.50
2022-07-31T21:41:13.255Z,26.50
2022-07-31T21:44:00.944Z,26.60
2022-07-31T21:46:51.564Z,26.70
2022-07-31T21:49:38.174Z,26.60
2022-07-31T21:52:27.364Z,26.60
2022-07-31T21:55:15.133Z,26.60
2022-07-31T21:58:02.470Z,26.60
2022-07-31T22:00:49.833Z,26.40
2022-07-31T22:03:37.689Z,26.30
2022-07-31T22:06:43.078Z,26.30
2022-07-31T22:09:30.341Z,26.20
2022-07-31T22:12:17.818Z,26.20
2022-07-31T22:15:06.290Z,26.10
2022-07-31T22:17:53.865Z,26.20
2022-07-31T22:20:41.380Z,26.30
2022-07-31T22:23:29.673Z,26.20
2022-07-31T22:26:17.332Z,26.20
2022-07-31T22:29:05.307Z,26.10
2022-07-31T22:31:53.989Z,26.10
2022-07-31T22:34:41.606Z,26.10
2022-07-31T22:37:29.915Z,26.10
2022-07-31T22:40:19.061Z,26.10
2022-07-31T22:43:23.339Z,26.10
2022-07-31T22:45:55.328Z,26.00
2022-07-31T22:48:42.720Z,26.00
2022-07-31T22:51:30.307Z,25.80
2022-07-31T22:54:17.491Z,25.80
2022-07-31T22:57:04.916Z,25.70
2022-07-31T22:59:51.982Z,25.60
2022-07-31T23:02:40.516Z,25.60
2022-07-31T23:05:27.673Z,25.50
2022-07-31T23:08:15.081Z,25.50
2022-07-31T23:11:02.316Z,25.50
2022-07-31T23:13:49.792Z,25.50
2022-07-31T23:16:37.175Z,25.60
2022-07-31T23:19:25.108Z,25.50
2022-07-31T23:22:12.614Z,25.40
2022-07-31T23:25:00.112Z,25.40
2022-07-31T23:27:47.435Z,25.40
2022-07-31T23:30:34.667Z,25.30
2022-07-31T23:33:21.915Z,25.20
2022-07-31T23:36:09.020Z,25.10
2022-07-31T23:38:57.038Z,25.00
2022-07-31T23:42:02.992Z,25.00
2022-07-31T23:44:50.772Z,25.00
2022-07-31T23:47:45.521Z,24.90
2022-07-31T23:50:27.509Z,24.90
2022-07-31T23:53:14.496Z,24.80
2022-07-31T23:56:01.979Z,24.70
2022-07-31T23:58:49.172Z,24.60
